createdAt,value
2018-06-28T00:01:30.812Z,15.10
2018-06-28T00:03:59.499Z,15.09
2018-06-28T00:06:28.283Z,15.13
2018-06-28T00:08:57.095Z,15.22
2018-06-28T00:11:25.796Z,15.22
2018-06-28T00:13:54.615Z,15.23
2018-06-28T00:16:23.362Z,15.27
2018-06-28T00:18:52.099Z,15.25
2018-06-28T00:21:20.864Z,15.28
2018-06-28T00:23:49.585Z,15.32
2018-06-28T00:26:18.372Z,15.36
2018-06-28T00:28:47.067Z,15.33
2018-06-28T00:31:15.899Z,15.38
2018-06-28T00:33:44.575Z,15.35
2018-06-28T00:36:13.373Z,15.42
2018-06-28T00:38:42.094Z,15.42
2018-06-28T00:41:10.871Z,15.48
2018-06-28T00:43:39.585Z,15.47
2018-06-28T00:46:08.368Z,15.44
2018-06-28T00:48:37.038Z,15.42
2018-06-28T00:51:05.786Z,15.47
2018-06-28T00:53:34.563Z,15.54
2018-06-28T00:56:03.460Z,15.56
2018-06-28T00:58:32.265Z,15.57
2018-06-28T01:01:01.008Z,15.60
2018-06-28T01:03:29.785Z,15.64
2018-06-28T01:05:58.559Z,15.59
2018-06-28T01:08:27.297Z,15.58
2018-06-28T01:10:56.070Z,15.60
2018-06-28T01:13:25.057Z,15.59
2018-06-28T01:15:53.823Z,15.58
2018-06-28T01:18:22.491Z,15.58
2018-06-28T01:20:51.209Z,15.58
2018-06-28T01:23:19.954Z,15.58
2018-06-28T01:25:48.661Z,15.56
2018-06-28T01:28:17.412Z,15.56
2018-06-28T01:30:46.140Z,15.55
2018-06-28T01:33:15.245Z,15.57
2018-06-28T01:35:44.007Z,15.55
2018-06-28T01:38:12.733Z,15.57
2018-06-28T01:40:41.481Z,15.59
2018-06-28T01:43:37.226Z,15.67
2018-06-28T01:46:06.085Z,15.75
2018-06-28T01:48:34.820Z,15.79
2018-06-28T01:51:03.640Z,15.78
2018-06-28T01:53:32.382Z,15.87
2018-06-28T01:58:35.191Z,15.83
2018-06-28T02:01:04.040Z,15.77
2018-06-28T02:03:32.755Z,15.75
2018-06-28T02:06:01.531Z,15.70
2018-06-28T02:08:30.231Z,15.73
2018-06-28T02:10:58.864Z,15.70
2018-06-28T02:13:27.589Z,15.64
2018-06-28T02:15:56.229Z,15.57
2018-06-28T02:18:25.010Z,15.62
2018-06-28T02:20:53.832Z,15.66
2018-06-28T02:23:22.538Z,15.65
2018-06-28T02:25:51.249Z,15.67
2018-06-28T02:28:20.065Z,15.69
2018-06-28T02:30:48.804Z,15.68
2018-06-28T02:33:17.590Z,15.74
2018-06-28T02:35:46.384Z,15.79
2018-06-28T02:38:15.371Z,15.78
2018-06-28T02:40:44.274Z,15.76
2018-06-28T02:43:12.987Z,15.81
2018-06-28T02:45:41.720Z,15.78
2018-06-28T02:48:10.427Z,15.76
2018-06-28T02:50:39.152Z,15.80
2018-06-28T02:53:07.863Z,15.81
2018-06-28T02:55:36.620Z,15.83
2018-06-28T02:58:05.351Z,15.82
2018-06-28T03:00:34.055Z,15.79
2018-06-28T03:03:02.740Z,15.81
2018-06-28T03:05:31.600Z,15.80
2018-06-28T03:08:00.318Z,15.84
2018-06-28T03:10:29.401Z,15.82
2018-06-28T03:12:58.135Z,15.79
2018-06-28T03:15:26.893Z,15.77
2018-06-28T03:17:55.611Z,15.75
2018-06-28T03:20:24.346Z,15.68
2018-06-28T03:22:53.082Z,15.65
2018-06-28T03:25:21.815Z,15.72
2018-06-28T03:27:50.542Z,15.79
2018-06-28T03:30:19.242Z,15.78
2018-06-28T03:32:48.011Z,15.84
2018-06-28T03:35:16.803Z,15.87
2018-06-28T03:37:45.511Z,15.87
2018-06-28T03:40:14.311Z,15.89
2018-06-28T03:42:43.063Z,15.87
2018-06-28T03:45:11.839Z,15.86
2018-06-28T03:47:40.542Z,15.88
2018-06-28T03:50:09.287Z,15.92
2018-06-28T03:52:38.000Z,15.87
2018-06-28T03:55:06.784Z,15.85
2018-06-28T03:57:35.611Z,15.85
2018-06-28T04:00:05.100Z,15.88
2018-06-28T04:02:33.906Z,15.90
2018-06-28T04:05:02.695Z,15.86
2018-06-28T04:07:31.488Z,15.83
2018-06-28T04:10:00.412Z,15.80
2018-06-28T04:12:29.355Z,15.77
2018-06-28T04:14:58.129Z,15.66
2018-06-28T04:17:26.898Z,15.63
2018-06-28T04:19:55.745Z,15.61
2018-06-28T04:22:28.722Z,15.62
2018-06-28T04:24:57.624Z,15.60
2018-06-28T04:27:26.910Z,15.62
2018-06-28T04:29:55.639Z,15.58
2018-06-28T04:32:24.663Z,15.63
2018-06-28T04:34:53.439Z,15.64
2018-06-28T04:37:22.157Z,15.65
2018-06-28T04:39:50.930Z,15.65
2018-06-28T04:42:20.007Z,15.65
2018-06-28T04:44:48.673Z,15.63
2018-06-28T04:47:18.982Z,15.69
2018-06-28T04:49:49.172Z,15.66
2018-06-28T04:52:18.025Z,15.62
2018-06-28T04:54:46.690Z,15.67
2018-06-28T04:57:15.359Z,15.70
2018-06-28T04:59:44.355Z,15.66
2018-06-28T05:02:13.051Z,15.59
2018-06-28T05:04:41.765Z,15.66
2018-06-28T05:07:10.953Z,15.60
2018-06-28T05:09:39.556Z,15.60
2018-06-28T05:12:08.313Z,15.66
2018-06-28T05:14:37.328Z,15.64
2018-06-28T05:17:06.043Z,15.58
2018-06-28T05:19:34.713Z,15.59
2018-06-28T05:22:03.424Z,15.67
2018-06-28T05:24:32.158Z,15.63
2018-06-28T05:27:01.111Z,15.63
2018-06-28T05:29:29.899Z,15.67
2018-06-28T05:31:58.610Z,15.66
2018-06-28T05:34:27.371Z,15.78
2018-06-28T05:36:58.493Z,15.68
2018-06-28T05:39:27.402Z,15.74
2018-06-28T05:41:56.122Z,15.75
2018-06-28T05:44:24.954Z,15.76
2018-06-28T05:46:53.641Z,15.82
2018-06-28T05:49:22.438Z,15.87
2018-06-28T05:51:51.102Z,15.93
2018-06-28T05:54:19.879Z,15.83
2018-06-28T05:56:48.864Z,15.89
2018-06-28T05:59:17.506Z,15.81
2018-06-28T06:01:46.319Z,15.87
2018-06-28T06:04:15.021Z,15.86
2018-06-28T06:06:44.160Z,15.87
2018-06-28T06:09:12.895Z,15.92
2018-06-28T06:11:41.663Z,15.89
2018-06-28T06:14:10.510Z,15.92
2018-06-28T06:16:39.232Z,15.95
2018-06-28T06:19:08.052Z,16.10
2018-06-28T06:21:36.807Z,16.06
2018-06-28T06:24:05.567Z,16.01
2018-06-28T06:26:34.221Z,16.04
2018-06-28T06:29:02.947Z,16.03
2018-06-28T06:31:31.706Z,16.07
2018-06-28T06:34:00.463Z,16.08
2018-06-28T06:36:29.827Z,16.12
2018-06-28T06:38:58.490Z,16.10
2018-06-28T06:41:27.219Z,16.13
2018-06-28T06:43:56.039Z,16.16
2018-06-28T06:46:24.765Z,16.20
2018-06-28T06:48:53.546Z,16.22
2018-06-28T06:51:22.490Z,16.24
2018-06-28T06:53:52.675Z,16.27
2018-06-28T06:56:21.895Z,16.25
2018-06-28T06:58:50.778Z,16.36
2018-06-28T07:01:19.504Z,16.35
2018-06-28T07:03:48.220Z,16.38
2018-06-28T07:06:17.155Z,16.41
2018-06-28T07:08:47.167Z,16.38
2018-06-28T07:11:15.925Z,16.45
2018-06-28T07:13:44.642Z,16.47
2018-06-28T07:16:13.968Z,16.46
2018-06-28T07:18:42.666Z,16.43
2018-06-28T07:21:11.327Z,16.47
2018-06-28T07:23:39.935Z,16.41
2018-06-28T07:26:08.627Z,16.56
2018-06-28T07:28:37.325Z,16.66
2018-06-28T07:31:06.182Z,16.69
2018-06-28T07:33:34.883Z,16.78
2018-06-28T07:36:03.530Z,16.79
2018-06-28T07:38:32.188Z,16.82
2018-06-28T07:41:00.836Z,16.94
2018-06-28T07:43:29.493Z,16.92
2018-06-28T07:45:58.189Z,16.93
2018-06-28T07:48:26.877Z,16.89
2018-06-28T07:50:55.648Z,17.00
2018-06-28T07:53:24.287Z,17.08
2018-06-28T07:55:52.987Z,17.11
2018-06-28T07:58:21.723Z,17.20
2018-06-28T08:00:50.376Z,17.20
2018-06-28T08:03:19.074Z,17.16
2018-06-28T08:05:47.710Z,17.27
2018-06-28T08:08:16.352Z,17.41
2018-06-28T08:10:45.013Z,17.39
2018-06-28T08:13:14.459Z,17.43
2018-06-28T08:15:43.090Z,17.45
2018-06-28T08:18:11.755Z,17.46
2018-06-28T08:20:40.511Z,17.47
2018-06-28T08:23:09.225Z,17.44
2018-06-28T08:25:37.937Z,17.30
2018-06-28T08:28:06.648Z,17.49
2018-06-28T08:30:36.011Z,17.48
2018-06-28T08:33:04.727Z,17.36
2018-06-28T08:35:33.419Z,17.41
2018-06-28T08:38:02.192Z,17.55
2018-06-28T08:40:30.896Z,17.51
2018-06-28T08:42:59.677Z,17.61
2018-06-28T08:45:28.366Z,17.71
2018-06-28T08:47:57.073Z,17.74
2018-06-28T08:50:25.760Z,17.91
2018-06-28T08:52:54.515Z,17.94
2018-06-28T08:55:23.189Z,18.03
2018-06-28T08:57:51.858Z,18.11
2018-06-28T09:00:20.571Z,18.15
2018-06-28T09:02:49.321Z,18.16
2018-06-28T09:05:17.986Z,18.27
2018-06-28T09:07:46.700Z,18.36
2018-06-28T09:10:15.463Z,18.38
2018-06-28T09:12:44.320Z,18.31
2018-06-28T09:15:13.057Z,18.39
2018-06-28T09:17:44.705Z,18.66
2018-06-28T09:20:13.613Z,18.73
2018-06-28T09:22:42.744Z,18.70
2018-06-28T09:25:11.423Z,18.85
2018-06-28T09:27:40.202Z,18.94
2018-06-28T09:30:09.333Z,19.16
2018-06-28T09:32:38.130Z,19.26
2018-06-28T09:35:06.906Z,19.31
2018-06-28T09:37:35.582Z,19.43
2018-06-28T09:40:04.403Z,19.75
2018-06-28T09:42:33.154Z,19.93
2018-06-28T09:45:01.879Z,20.28
2018-06-28T09:47:30.667Z,20.57
2018-06-28T09:49:59.394Z,20.81
2018-06-28T09:52:28.099Z,20.95
2018-06-28T09:54:57.139Z,20.88
2018-06-28T09:57:25.908Z,20.68
2018-06-28T09:59:54.587Z,20.79
2018-06-28T10:02:23.395Z,20.49
2018-06-28T10:04:52.187Z,20.45
2018-06-28T10:07:20.833Z,20.47
2018-06-28T10:09:49.538Z,20.37
2018-06-28T10:12:18.243Z,20.67
2018-06-28T10:14:47.031Z,20.67
2018-06-28T10:17:15.687Z,20.80
2018-06-28T10:19:44.358Z,20.94
2018-06-28T10:22:13.054Z,20.97
2018-06-28T10:24:41.875Z,21.40
2018-06-28T10:27:10.669Z,21.82
2018-06-28T10:29:39.436Z,22.03
2018-06-28T10:32:08.227Z,22.03
2018-06-28T10:34:37.041Z,21.83
2018-06-28T10:37:06.055Z,21.79
2018-06-28T10:39:34.940Z,21.87
2018-06-28T10:42:03.707Z,22.20
2018-06-28T10:44:32.435Z,22.19
2018-06-28T10:47:01.260Z,21.90
2018-06-28T10:49:29.864Z,21.95
2018-06-28T10:51:58.574Z,22.42
2018-06-28T10:54:27.306Z,22.50
2018-06-28T10:56:56.010Z,22.29
2018-06-28T10:59:24.671Z,21.90
2018-06-28T11:01:53.467Z,22.15
2018-06-28T11:04:22.144Z,22.02
2018-06-28T11:06:50.842Z,21.80
2018-06-28T11:09:19.552Z,21.50
2018-06-28T11:11:48.227Z,21.50
2018-06-28T11:14:16.909Z,21.52
2018-06-28T11:16:45.577Z,21.64
2018-06-28T11:19:14.296Z,21.69
2018-06-28T11:21:42.973Z,21.56
2018-06-28T11:24:11.691Z,21.48
2018-06-28T11:26:40.422Z,21.16
2018-06-28T11:29:09.059Z,21.21
2018-06-28T11:31:37.760Z,21.26
2018-06-28T11:34:06.747Z,21.54
2018-06-28T11:36:35.712Z,21.37
2018-06-28T11:39:06.372Z,21.78
2018-06-28T11:41:35.099Z,22.28
2018-06-28T11:44:03.892Z,22.77
2018-06-28T11:46:32.867Z,23.13
2018-06-28T11:49:01.597Z,23.47
2018-06-28T11:51:31.315Z,23.86
2018-06-28T11:54:00.096Z,24.03
2018-06-28T11:56:28.798Z,24.08
2018-06-28T11:58:57.596Z,24.18
2018-06-28T12:01:26.363Z,24.10
2018-06-28T12:03:55.128Z,23.87
2018-06-28T12:06:23.924Z,23.55
2018-06-28T12:08:52.663Z,23.57
2018-06-28T12:11:21.503Z,23.33
2018-06-28T12:13:50.355Z,23.29
2018-06-28T12:16:19.120Z,23.39
2018-06-28T12:18:47.850Z,23.40
2018-06-28T12:21:16.618Z,23.05
2018-06-28T12:23:45.431Z,23.43
2018-06-28T12:26:14.284Z,23.99
2018-06-28T12:28:43.111Z,24.64
2018-06-28T12:31:11.992Z,24.79
2018-06-28T12:33:40.622Z,24.78
2018-06-28T12:36:09.491Z,24.49
2018-06-28T12:38:38.339Z,24.43
2018-06-28T12:41:07.183Z,23.94
2018-06-28T12:43:35.950Z,24.70
2018-06-28T12:46:05.227Z,24.68
2018-06-28T12:48:34.033Z,25.01
2018-06-28T12:51:02.908Z,24.84
2018-06-28T12:53:31.633Z,25.09
2018-06-28T12:56:18.504Z,24.70
2018-06-28T12:58:47.318Z,24.81
2018-06-28T13:01:16.186Z,25.24
2018-06-28T13:03:45.037Z,25.39
2018-06-28T13:06:13.831Z,25.32
2018-06-28T13:08:42.592Z,24.48
2018-06-28T13:11:11.351Z,24.62
2018-06-28T13:13:41.060Z,25.11
2018-06-28T13:16:11.080Z,25.81
2018-06-28T13:18:39.976Z,26.50
2018-06-28T13:21:08.864Z,26.65
2018-06-28T13:23:37.767Z,25.80
2018-06-28T13:26:06.691Z,25.17
2018-06-28T13:28:35.596Z,25.46
2018-06-28T13:31:05.311Z,25.62
2018-06-28T13:33:34.099Z,25.89
2018-06-28T13:36:03.153Z,26.59
2018-06-28T13:38:32.083Z,26.81
2018-06-28T13:41:01.024Z,27.65
2018-06-28T13:43:29.956Z,27.26
2018-06-28T13:45:58.882Z,26.19
2018-06-28T13:48:27.697Z,25.11
2018-06-28T13:50:56.554Z,25.29
2018-06-28T13:53:25.323Z,25.47
2018-06-28T13:55:54.079Z,25.80
2018-06-28T13:58:22.864Z,26.09
2018-06-28T14:00:51.626Z,25.99
2018-06-28T14:03:20.415Z,25.98
2018-06-28T14:05:49.295Z,25.86
2018-06-28T14:08:18.036Z,25.72
2018-06-28T14:10:46.760Z,25.07
2018-06-28T14:15:49.546Z,26.03
2018-06-28T14:18:18.331Z,26.93
2018-06-28T14:20:47.024Z,27.07
2018-06-28T14:23:15.784Z,27.54
2018-06-28T14:25:44.573Z,28.25
2018-06-28T14:28:13.398Z,28.35
2018-06-28T14:30:42.175Z,28.64
2018-06-28T14:33:10.948Z,29.11
2018-06-28T14:35:39.754Z,29.32
2018-06-28T14:38:08.480Z,28.56
2018-06-28T14:40:37.187Z,28.19
2018-06-28T14:43:06.298Z,27.91
2018-06-28T14:45:35.066Z,28.32
2018-06-28T14:48:03.876Z,29.26
2018-06-28T14:50:32.788Z,28.79
2018-06-28T14:53:01.595Z,27.80
2018-06-28T14:55:30.410Z,28.46
2018-06-28T14:57:59.230Z,28.18
2018-06-28T15:00:28.380Z,27.68
2018-06-28T15:02:57.170Z,29.66
2018-06-28T15:05:25.991Z,29.47
2018-06-28T15:07:54.887Z,28.85
2018-06-28T15:10:23.602Z,27.63
2018-06-28T15:12:52.494Z,26.46
2018-06-28T15:15:21.359Z,26.17
2018-06-28T15:17:50.160Z,25.48
2018-06-28T15:20:18.926Z,25.44
2018-06-28T15:22:47.752Z,24.88
2018-06-28T15:25:16.521Z,24.95
2018-06-28T15:27:45.397Z,24.67
2018-06-28T15:30:14.171Z,24.28
2018-06-28T15:32:42.924Z,23.80
2018-06-28T15:35:12.592Z,23.79
2018-06-28T15:37:41.387Z,23.65
2018-06-28T15:40:10.212Z,23.54
2018-06-28T15:42:39.024Z,23.05
2018-06-28T15:45:07.923Z,22.40
2018-06-28T15:47:36.679Z,22.32
2018-06-28T15:50:05.942Z,22.38
2018-06-28T15:52:34.756Z,22.18
2018-06-28T15:55:03.665Z,22.26
2018-06-28T15:57:32.576Z,22.05
2018-06-28T16:00:01.374Z,21.93
2018-06-28T16:02:30.141Z,21.84
2018-06-28T16:04:58.903Z,21.53
2018-06-28T16:07:27.634Z,21.39
2018-06-28T16:09:56.363Z,21.09
2018-06-28T16:12:25.208Z,20.68
2018-06-28T16:14:53.966Z,20.60
2018-06-28T16:17:22.706Z,20.47
2018-06-28T16:19:51.442Z,20.46
2018-06-28T16:22:20.139Z,20.36
2018-06-28T16:24:48.852Z,20.27
2018-06-28T16:27:17.651Z,20.28
2018-06-28T16:29:46.375Z,20.28
2018-06-28T16:32:15.116Z,20.24
2018-06-28T16:34:43.803Z,20.07
2018-06-28T16:37:12.612Z,20.00
2018-06-28T16:39:41.335Z,19.93
2018-06-28T16:42:10.104Z,19.85
2018-06-28T16:44:39.007Z,19.89
2018-06-28T16:47:07.956Z,19.99
2018-06-28T16:49:36.768Z,19.99
2018-06-28T16:52:06.284Z,20.02
2018-06-28T16:54:35.078Z,20.02
2018-06-28T16:57:03.845Z,20.00
2018-06-28T16:59:32.597Z,19.92
2018-06-28T17:02:01.307Z,19.88
2018-06-28T17:04:30.093Z,19.91
2018-06-28T17:06:58.938Z,19.88
2018-06-28T17:09:27.680Z,19.90
2018-06-28T17:11:56.463Z,19.95
2018-06-28T17:14:25.289Z,19.96
2018-06-28T17:16:54.041Z,20.08
2018-06-28T17:19:22.818Z,20.03
2018-06-28T17:21:51.616Z,20.03
2018-06-28T17:24:20.380Z,20.08
2018-06-28T17:26:49.212Z,20.25
2018-06-28T17:29:17.949Z,20.25
2018-06-28T17:31:46.704Z,20.22
2018-06-28T17:34:15.440Z,20.29
2018-06-28T17:36:44.216Z,20.31
2018-06-28T17:39:13.007Z,20.35
2018-06-28T17:41:41.858Z,20.25
2018-06-28T17:44:10.658Z,20.39
2018-06-28T17:46:39.487Z,20.40
2018-06-28T17:49:08.260Z,20.30
2018-06-28T17:51:36.989Z,20.32
2018-06-28T17:54:06.067Z,20.38
2018-06-28T17:56:34.916Z,20.37
2018-06-28T17:59:03.661Z,20.23
2018-06-28T18:01:32.465Z,20.25
2018-06-28T18:04:01.260Z,20.22
2018-06-28T18:06:30.031Z,20.11
2018-06-28T18:09:00.029Z,20.14
2018-06-28T18:11:28.687Z,20.07
2018-06-28T18:13:57.470Z,20.24
2018-06-28T18:16:26.252Z,20.21
2018-06-28T18:18:55.067Z,20.26
2018-06-28T18:21:23.959Z,20.18
2018-06-28T18:23:53.067Z,20.16
2018-06-28T18:26:21.911Z,20.10
2018-06-28T18:28:50.709Z,20.03
2018-06-28T18:31:19.467Z,20.06
2018-06-28T18:33:48.359Z,20.06
2018-06-28T18:36:17.436Z,19.99
2018-06-28T18:38:46.365Z,19.94
2018-06-28T18:41:15.456Z,19.92
2018-06-28T18:43:44.393Z,19.81
2018-06-28T18:46:13.348Z,19.72
2018-06-28T18:48:42.492Z,19.78
2018-06-28T18:51:11.260Z,19.75
2018-06-28T18:53:40.250Z,19.77
2018-06-28T18:56:09.041Z,19.58
2018-06-28T18:58:37.783Z,19.45
2018-06-28T19:01:06.640Z,19.43
2018-06-28T19:03:35.606Z,19.46
2018-06-28T19:06:04.294Z,19.37
2018-06-28T19:08:33.075Z,19.37
2018-06-28T19:11:01.828Z,19.44
2018-06-28T19:13:30.614Z,19.44
2018-06-28T19:16:04.553Z,19.49
2018-06-28T19:18:33.522Z,19.49
2018-06-28T19:21:07.312Z,19.40
2018-06-28T19:23:41.429Z,19.43
2018-06-28T19:26:10.370Z,19.43
2018-06-28T19:28:45.547Z,19.41
2018-06-28T19:31:19.470Z,19.37
2018-06-28T19:33:48.737Z,19.43
2018-06-28T19:36:17.783Z,19.42
2018-06-28T19:38:51.661Z,19.41
2018-06-28T19:41:25.802Z,19.35
2018-06-28T19:43:54.694Z,19.43
2018-06-28T19:46:23.596Z,19.42
2018-06-28T19:48:52.629Z,19.43
2018-06-28T19:51:26.703Z,19.40
2018-06-28T19:53:55.616Z,19.37
2018-06-28T19:56:24.480Z,19.38
2018-06-28T19:58:53.446Z,19.35
2018-06-28T20:01:28.065Z,19.43
2018-06-28T20:04:02.009Z,19.40
2018-06-28T20:06:30.739Z,19.46
2018-06-28T20:08:59.419Z,19.45
2018-06-28T20:11:28.445Z,19.45
2018-06-28T20:14:02.257Z,19.53
2018-06-28T20:16:36.058Z,19.42
2018-06-28T20:19:09.902Z,19.47
2018-06-28T20:21:38.610Z,19.39
2018-06-28T20:24:07.747Z,19.48
2018-06-28T20:26:41.423Z,19.46
2018-06-28T20:29:15.093Z,19.46
2018-06-28T20:31:48.848Z,19.43
2018-06-28T20:34:17.536Z,19.34
2018-06-28T20:36:46.253Z,19.44
2018-06-28T20:39:14.924Z,19.53
2018-06-28T20:41:44.146Z,19.58
2018-06-28T20:44:13.303Z,19.52
2018-06-28T20:46:42.006Z,19.50
2018-06-28T20:49:10.669Z,19.47
2018-06-28T20:51:39.426Z,19.45
2018-06-28T20:54:13.567Z,19.51
2018-06-28T20:56:42.262Z,19.40
2018-06-28T20:59:10.914Z,19.51
2018-06-28T21:01:39.656Z,19.45
2018-06-28T21:04:08.409Z,19.51
2018-06-28T21:06:37.277Z,19.46
2018-06-28T21:09:07.762Z,19.43
2018-06-28T21:11:36.415Z,19.42
2018-06-28T21:14:05.160Z,19.44
2018-06-28T21:16:34.877Z,19.38
2018-06-28T21:19:04.175Z,19.39
2018-06-28T21:21:32.867Z,19.37
2018-06-28T21:24:01.709Z,19.39
2018-06-28T21:26:30.418Z,19.29
2018-06-28T21:28:59.147Z,19.37
2018-06-28T21:31:27.867Z,19.36
2018-06-28T21:33:56.562Z,19.39
2018-06-28T21:36:25.261Z,19.38
2018-06-28T21:38:53.979Z,19.46
2018-06-28T21:41:22.791Z,19.34
2018-06-28T21:43:51.449Z,19.35
2018-06-28T21:46:20.503Z,19.29
2018-06-28T21:48:49.231Z,19.32
2018-06-28T21:51:17.997Z,19.34
2018-06-28T21:53:46.671Z,19.22
2018-06-28T21:56:15.369Z,19.24
2018-06-28T21:58:44.043Z,19.31
2018-06-28T22:01:12.728Z,19.24
2018-06-28T22:03:41.420Z,19.20
2018-06-28T22:06:10.098Z,19.20
2018-06-28T22:08:38.775Z,19.20
2018-06-28T22:11:07.517Z,19.17
2018-06-28T22:13:36.302Z,19.22
2018-06-28T22:16:05.257Z,19.21
2018-06-28T22:18:33.945Z,19.16
2018-06-28T22:21:02.621Z,19.20
2018-06-28T22:23:31.408Z,19.25
2018-06-28T22:26:00.176Z,19.19
2018-06-28T22:28:28.841Z,19.22
2018-06-28T22:30:57.519Z,19.21
2018-06-28T22:33:27.837Z,19.17
2018-06-28T22:35:56.545Z,19.24
2018-06-28T22:38:25.238Z,19.12
2018-06-28T22:40:53.902Z,19.12
2018-06-28T22:43:22.730Z,19.11
2018-06-28T22:45:51.391Z,19.20
2018-06-28T22:48:20.081Z,19.18
2018-06-28T22:50:48.867Z,19.25
2018-06-28T22:53:17.591Z,19.17
2018-06-28T22:55:46.309Z,19.17
2018-06-28T22:58:15.005Z,19.11
2018-06-28T23:00:43.692Z,19.10
2018-06-28T23:03:12.418Z,19.12
2018-06-28T23:05:41.090Z,19.14
2018-06-28T23:08:09.845Z,19.09
2018-06-28T23:10:38.552Z,19.10
2018-06-28T23:13:07.218Z,19.14
2018-06-28T23:15:35.904Z,19.27
2018-06-28T23:18:04.606Z,19.25
2018-06-28T23:20:33.243Z,19.22
2018-06-28T23:23:01.906Z,19.15
2018-06-28T23:25:30.707Z,19.14
2018-06-28T23:27:59.470Z,19.20
2018-06-28T23:30:28.133Z,19.11
2018-06-28T23:32:56.836Z,19.21
2018-06-28T23:35:25.476Z,19.19
2018-06-28T23:37:54.363Z,19.15
2018-06-28T23:40:23.082Z,19.16
2018-06-28T23:42:52.371Z,19.22
2018-06-28T23:45:21.092Z,19.20
2018-06-28T23:47:49.903Z,19.19
2018-06-28T23:50:18.452Z,19.21
2018-06-28T23:52:47.130Z,19.27
2018-06-28T23:55:15.841Z,19.22
2018-06-28T23:57:44.556Z,19.31
